This is the latest recevied weather packets stored in our database for station/object SP9INZ-13. If no packets are shown the sender has not sent any weather packets the latest 10 day(s).
| Time | Temp. | Humidity | Pressure | Rain* | Wind** | Luminosity | Snow |
|---|---|---|---|---|---|---|---|
| 1777479047 | 11.11° C | 35% | 1037.7 hPa | - | - | - | - |
| 1777478087 | 11.11° C | 34% | 1037.5 hPa | - | - | - | - |
| 1777477129 | 11.67° C | 34% | 1037.3 hPa | - | - | - | - |
| 1777476171 | 12.78° C | 33% | 1036.6 hPa | - | - | - | - |
| 1777475213 | 12.22° C | 33% | 1036.8 hPa | - | - | - | - |
| 1777474255 | 10.56° C | 34% | 1037.6 hPa | - | - | - | - |
| 1777473297 | 11.11° C | 35% | 1036.9 hPa | - | - | - | - |
| 1777472339 | 11.67° C | 32% | 1036.9 hPa | - | - | - | - |
| 1777471381 | 11.11° C | 32% | 1037.1 hPa | - | - | - | - |
| 1777470423 | 10.56° C | 31% | 1037.7 hPa | - | - | - | - |
| 1777469465 | 11.11° C | 30% | 1037.2 hPa | - | - | - | - |
| 1777468507 | 11.67° C | 29% | 1036.7 hPa | - | - | - | - |
| 1777467549 | 12.22° C | 27% | 1037 hPa | - | - | - | - |
| 1777466592 | 12.78° C | 25% | 1036.7 hPa | - | - | - | - |
| 1777465633 | 11.11° C | 25% | 1037.8 hPa | - | - | - | - |
| 1777464675 | 12.22° C | 25% | 1037 hPa | - | - | - | - |
| 1777463725 | 12.22° C | 25% | 1036.8 hPa | - | - | - | - |
| 1777463718 | 12.22° C | 25% | 1036.8 hPa | - | - | - | - |
| 1777462759 | 12.78° C | 25% | 1036.6 hPa | - | - | - | - |
| 1777461801 | 11.11° C | 27% | 1037.1 hPa | - | - | - | - |
| 1777460843 | 9.44° C | 29% | 1037.9 hPa | - | - | - | - |
| 1777459885 | 10.56° C | 32% | 1036.8 hPa | - | - | - | - |
| 1777458927 | 10° C | 35% | 1036.7 hPa | - | - | - | - |
| 1777457969 | 9.44° C | 35% | 1037.2 hPa | - | - | - | - |
| 1777457011 | 10° C | 39% | 1036.5 hPa | - | - | - | - |
* Rain since midnight (hover to see other rain measurements)
** Current wind speed in m/s (hover to see current wind gust speed)